sensor_id;sensor_type;location;lat;lon;timestamp;P1;durP1;ratioP1;P2;durP2;ratioP2
34585;SDS011;20816;50.950;11.108;2023-12-14T00:01:23;0.70;;;0.60;;
34585;SDS011;20816;50.950;11.108;2023-12-14T00:03:50;0.77;;;0.50;;
34585;SDS011;20816;50.950;11.108;2023-12-14T00:06:16;1.67;;;0.93;;
34585;SDS011;20816;50.950;11.108;2023-12-14T00:08:43;0.80;;;0.40;;
34585;SDS011;20816;50.950;11.108;2023-12-14T00:11:10;2.03;;;0.40;;
34585;SDS011;20816;50.950;11.108;2023-12-14T00:13:38;0.50;;;0.40;;
34585;SDS011;20816;50.950;11.108;2023-12-14T00:16:05;1.57;;;0.60;;
34585;SDS011;20816;50.950;11.108;2023-12-14T00:18:32;0.77;;;0.40;;
34585;SDS011;20816;50.950;11.108;2023-12-14T00:20:59;0.40;;;0.30;;
34585;SDS011;20816;50.950;11.108;2023-12-14T00:23:26;0.37;;;0.37;;
34585;SDS011;20816;50.950;11.108;2023-12-14T00:25:52;1.60;;;0.80;;
34585;SDS011;20816;50.950;11.108;2023-12-14T00:28:19;0.40;;;0.40;;
34585;SDS011;20816;50.950;11.108;2023-12-14T00:30:45;0.50;;;0.30;;
34585;SDS011;20816;50.950;11.108;2023-12-14T00:33:12;0.90;;;0.57;;
34585;SDS011;20816;50.950;11.108;2023-12-14T00:35:39;0.47;;;0.47;;
34585;SDS011;20816;50.950;11.108;2023-12-14T00:38:06;0.83;;;0.43;;
34585;SDS011;20816;50.950;11.108;2023-12-14T00:40:32;0.60;;;0.30;;
34585;SDS011;20816;50.950;11.108;2023-12-14T00:42:59;1.27;;;0.50;;
34585;SDS011;20816;50.950;11.108;2023-12-14T00:45:25;5.97;;;1.40;;
34585;SDS011;20816;50.950;11.108;2023-12-14T00:47:52;0.67;;;0.67;;
34585;SDS011;20816;50.950;11.108;2023-12-14T00:50:19;0.80;;;0.63;;
34585;SDS011;20816;50.950;11.108;2023-12-14T00:52:45;1.33;;;0.80;;
34585;SDS011;20816;50.950;11.108;2023-12-14T00:55:12;0.47;;;0.37;;
34585;SDS011;20816;50.950;11.108;2023-12-14T00:57:38;0.67;;;0.40;;
34585;SDS011;20816;50.950;11.108;2023-12-14T01:00:05;0.53;;;0.37;;
34585;SDS011;20816;50.950;11.108;2023-12-14T01:02:32;0.67;;;0.57;;
34585;SDS011;20816;50.950;11.108;2023-12-14T01:05:00;0.63;;;0.47;;
34585;SDS011;20816;50.950;11.108;2023-12-14T01:07:28;0.83;;;0.27;;
34585;SDS011;20816;50.950;11.108;2023-12-14T01:09:55;0.53;;;0.40;;
34585;SDS011;20816;50.950;11.108;2023-12-14T01:12:21;0.20;;;0.10;;
34585;SDS011;20816;50.950;11.108;2023-12-14T01:14:48;0.20;;;0.20;;
34585;SDS011;20816;50.950;11.108;2023-12-14T01:17:15;0.70;;;0.57;;
34585;SDS011;20816;50.950;11.108;2023-12-14T01:19:41;0.77;;;0.50;;
34585;SDS011;20816;50.950;11.108;2023-12-14T01:22:08;2.40;;;0.50;;
34585;SDS011;20816;50.950;11.108;2023-12-14T01:24:35;0.23;;;0.20;;
34585;SDS011;20816;50.950;11.108;2023-12-14T01:27:01;0.60;;;0.30;;
34585;SDS011;20816;50.950;11.108;2023-12-14T01:29:28;0.40;;;0.40;;
34585;SDS011;20816;50.950;11.108;2023-12-14T01:31:55;0.10;;;0.10;;
34585;SDS011;20816;50.950;11.108;2023-12-14T01:34:21;0.50;;;0.30;;
34585;SDS011;20816;50.950;11.108;2023-12-14T01:36:48;0.60;;;0.60;;
34585;SDS011;20816;50.950;11.108;2023-12-14T01:39:15;0.77;;;0.67;;
34585;SDS011;20816;50.950;11.108;2023-12-14T01:41:41;2.27;;;0.60;;
34585;SDS011;20816;50.950;11.108;2023-12-14T01:44:08;0.80;;;0.40;;
34585;SDS011;20816;50.950;11.108;2023-12-14T01:46:34;0.80;;;0.50;;
34585;SDS011;20816;50.950;11.108;2023-12-14T01:49:01;0.53;;;0.50;;
34585;SDS011;20816;50.950;11.108;2023-12-14T01:51:28;1.73;;;0.63;;
34585;SDS011;20816;50.950;11.108;2023-12-14T01:53:54;0.90;;;0.47;;
34585;SDS011;20816;50.950;11.108;2023-12-14T01:56:21;1.03;;;0.70;;
34585;SDS011;20816;50.950;11.108;2023-12-14T01:58:48;1.80;;;0.87;;
34585;SDS011;20816;50.950;11.108;2023-12-14T02:01:19;0.60;;;0.57;;
34585;SDS011;20816;50.950;11.108;2023-12-14T02:03:52;1.70;;;0.90;;
34585;SDS011;20816;50.950;11.108;2023-12-14T02:06:20;1.23;;;0.77;;
34585;SDS011;20816;50.950;11.108;2023-12-14T02:08:47;0.90;;;0.60;;
34585;SDS011;20816;50.950;11.108;2023-12-14T02:11:14;1.03;;;0.80;;
34585;SDS011;20816;50.950;11.108;2023-12-14T02:13:40;0.73;;;0.50;;
34585;SDS011;20816;50.950;11.108;2023-12-14T02:16:07;1.67;;;1.37;;
34585;SDS011;20816;50.950;11.108;2023-12-14T02:18:35;0.90;;;0.87;;
34585;SDS011;20816;50.950;11.108;2023-12-14T02:21:02;1.40;;;0.80;;
34585;SDS011;20816;50.950;11.108;2023-12-14T02:23:28;0.93;;;0.70;;
34585;SDS011;20816;50.950;11.108;2023-12-14T02:25:56;0.77;;;0.70;;
34585;SDS011;20816;50.950;11.108;2023-12-14T02:28:22;1.30;;;0.93;;
34585;SDS011;20816;50.950;11.108;2023-12-14T02:30:50;1.03;;;0.60;;
34585;SDS011;20816;50.950;11.108;2023-12-14T02:33:17;1.50;;;0.77;;
34585;SDS011;20816;50.950;11.108;2023-12-14T02:35:44;1.17;;;0.53;;
34585;SDS011;20816;50.950;11.108;2023-12-14T02:38:10;1.10;;;0.50;;
34585;SDS011;20816;50.950;11.108;2023-12-14T02:40:37;1.20;;;0.80;;
34585;SDS011;20816;50.950;11.108;2023-12-14T02:43:04;0.53;;;0.43;;
34585;SDS011;20816;50.950;11.108;2023-12-14T02:45:31;2.87;;;1.57;;
34585;SDS011;20816;50.950;11.108;2023-12-14T02:47:57;1.00;;;0.50;;
34585;SDS011;20816;50.950;11.108;2023-12-14T02:50:24;1.10;;;0.80;;
34585;SDS011;20816;50.950;11.108;2023-12-14T02:52:51;0.80;;;0.67;;
34585;SDS011;20816;50.950;11.108;2023-12-14T02:55:17;2.37;;;0.80;;
34585;SDS011;20816;50.950;11.108;2023-12-14T02:57:44;1.20;;;0.87;;
34585;SDS011;20816;50.950;11.108;2023-12-14T03:00:11;0.87;;;0.70;;
34585;SDS011;20816;50.950;11.108;2023-12-14T03:02:38;3.10;;;0.90;;
34585;SDS011;20816;50.950;11.108;2023-12-14T03:05:05;0.47;;;0.43;;
34585;SDS011;20816;50.950;11.108;2023-12-14T03:07:35;1.90;;;0.83;;
34585;SDS011;20816;50.950;11.108;2023-12-14T03:10:03;1.37;;;0.83;;
34585;SDS011;20816;50.950;11.108;2023-12-14T03:12:30;0.93;;;0.60;;
34585;SDS011;20816;50.950;11.108;2023-12-14T03:14:56;1.37;;;0.60;;
34585;SDS011;20816;50.950;11.108;2023-12-14T03:17:23;1.73;;;0.90;;
34585;SDS011;20816;50.950;11.108;2023-12-14T03:19:50;1.30;;;0.83;;
34585;SDS011;20816;50.950;11.108;2023-12-14T03:22:16;1.03;;;0.83;;
34585;SDS011;20816;50.950;11.108;2023-12-14T03:24:43;0.83;;;0.83;;
34585;SDS011;20816;50.950;11.108;2023-12-14T03:27:10;1.50;;;1.30;;
34585;SDS011;20816;50.950;11.108;2023-12-14T03:29:36;2.73;;;1.00;;
34585;SDS011;20816;50.950;11.108;2023-12-14T03:32:03;1.40;;;0.87;;
34585;SDS011;20816;50.950;11.108;2023-12-14T03:34:30;2.07;;;1.10;;
34585;SDS011;20816;50.950;11.108;2023-12-14T03:36:56;1.80;;;1.07;;
34585;SDS011;20816;50.950;11.108;2023-12-14T03:39:23;2.87;;;1.20;;
34585;SDS011;20816;50.950;11.108;2023-12-14T03:41:50;2.00;;;1.00;;
34585;SDS011;20816;50.950;11.108;2023-12-14T03:44:16;2.60;;;2.03;;
34585;SDS011;20816;50.950;11.108;2023-12-14T03:46:43;1.67;;;1.13;;
34585;SDS011;20816;50.950;11.108;2023-12-14T03:49:09;1.90;;;1.43;;
34585;SDS011;20816;50.950;11.108;2023-12-14T03:51:36;2.30;;;1.50;;
34585;SDS011;20816;50.950;11.108;2023-12-14T03:54:03;2.20;;;1.27;;
34585;SDS011;20816;50.950;11.108;2023-12-14T03:56:29;2.73;;;1.60;;
34585;SDS011;20816;50.950;11.108;2023-12-14T03:58:56;6.47;;;1.60;;
34585;SDS011;20816;50.950;11.108;2023-12-14T04:01:24;1.63;;;0.97;;
34585;SDS011;20816;50.950;11.108;2023-12-14T04:03:51;3.70;;;1.70;;
34585;SDS011;20816;50.950;11.108;2023-12-14T04:06:17;3.50;;;1.67;;
34585;SDS011;20816;50.950;11.108;2023-12-14T04:08:44;5.17;;;1.97;;
34585;SDS011;20816;50.950;11.108;2023-12-14T04:11:11;2.83;;;1.80;;
34585;SDS011;20816;50.950;11.108;2023-12-14T04:13:38;3.33;;;1.87;;
34585;SDS011;20816;50.950;11.108;2023-12-14T04:16:05;3.00;;;1.97;;
34585;SDS011;20816;50.950;11.108;2023-12-14T04:18:32;5.03;;;3.23;;
34585;SDS011;20816;50.950;11.108;2023-12-14T04:20:59;3.77;;;2.50;;
34585;SDS011;20816;50.950;11.108;2023-12-14T04:23:26;4.97;;;2.43;;
34585;SDS011;20816;50.950;11.108;2023-12-14T04:25:53;4.23;;;2.13;;
34585;SDS011;20816;50.950;11.108;2023-12-14T04:28:20;4.57;;;2.37;;
34585;SDS011;20816;50.950;11.108;2023-12-14T04:30:46;4.37;;;2.03;;
34585;SDS011;20816;50.950;11.108;2023-12-14T04:33:13;5.07;;;2.37;;
34585;SDS011;20816;50.950;11.108;2023-12-14T04:35:40;5.00;;;2.43;;
34585;SDS011;20816;50.950;11.108;2023-12-14T04:38:06;3.10;;;1.70;;
34585;SDS011;20816;50.950;11.108;2023-12-14T04:40:33;4.10;;;2.43;;
34585;SDS011;20816;50.950;11.108;2023-12-14T04:43:00;4.13;;;2.20;;
34585;SDS011;20816;50.950;11.108;2023-12-14T04:45:26;6.50;;;3.63;;
34585;SDS011;20816;50.950;11.108;2023-12-14T04:47:53;8.40;;;4.00;;
34585;SDS011;20816;50.950;11.108;2023-12-14T04:50:20;6.77;;;3.37;;
34585;SDS011;20816;50.950;11.108;2023-12-14T04:52:47;8.00;;;4.07;;
34585;SDS011;20816;50.950;11.108;2023-12-14T04:55:14;5.83;;;3.60;;
34585;SDS011;20816;50.950;11.108;2023-12-14T04:57:40;8.93;;;4.07;;
34585;SDS011;20816;50.950;11.108;2023-12-14T05:00:07;6.80;;;3.40;;
34585;SDS011;20816;50.950;11.108;2023-12-14T05:02:38;6.40;;;4.00;;
34585;SDS011;20816;50.950;11.108;2023-12-14T05:05:04;5.17;;;3.43;;
34585;SDS011;20816;50.950;11.108;2023-12-14T05:07:31;6.03;;;4.07;;
34585;SDS011;20816;50.950;11.108;2023-12-14T05:09:58;5.77;;;3.87;;
34585;SDS011;20816;50.950;11.108;2023-12-14T05:12:25;6.43;;;3.80;;
34585;SDS011;20816;50.950;11.108;2023-12-14T05:14:53;5.73;;;3.30;;
34585;SDS011;20816;50.950;11.108;2023-12-14T05:17:19;5.80;;;3.90;;
34585;SDS011;20816;50.950;11.108;2023-12-14T05:19:46;8.73;;;3.97;;
34585;SDS011;20816;50.950;11.108;2023-12-14T05:22:13;10.03;;;2.33;;
34585;SDS011;20816;50.950;11.108;2023-12-14T05:24:40;6.00;;;3.60;;
34585;SDS011;20816;50.950;11.108;2023-12-14T05:27:06;6.87;;;3.17;;
34585;SDS011;20816;50.950;11.108;2023-12-14T05:29:33;6.97;;;3.23;;
34585;SDS011;20816;50.950;11.108;2023-12-14T05:32:24;5.33;;;3.07;;
34585;SDS011;20816;50.950;11.108;2023-12-14T05:34:51;23.27;;;3.97;;
34585;SDS011;20816;50.950;11.108;2023-12-14T05:37:17;6.97;;;4.00;;
34585;SDS011;20816;50.950;11.108;2023-12-14T05:39:44;5.03;;;3.70;;
34585;SDS011;20816;50.950;11.108;2023-12-14T05:42:11;8.50;;;3.97;;
34585;SDS011;20816;50.950;11.108;2023-12-14T05:44:41;5.43;;;3.67;;
34585;SDS011;20816;50.950;11.108;2023-12-14T05:47:08;9.63;;;3.73;;
34585;SDS011;20816;50.950;11.108;2023-12-14T05:49:35;8.77;;;3.73;;
34585;SDS011;20816;50.950;11.108;2023-12-14T05:52:01;7.70;;;3.83;;
34585;SDS011;20816;50.950;11.108;2023-12-14T05:54:28;9.87;;;4.47;;
34585;SDS011;20816;50.950;11.108;2023-12-14T05:56:54;8.83;;;3.93;;
34585;SDS011;20816;50.950;11.108;2023-12-14T05:59:21;4.70;;;3.17;;
34585;SDS011;20816;50.950;11.108;2023-12-14T06:01:48;5.87;;;2.80;;
34585;SDS011;20816;50.950;11.108;2023-12-14T06:04:14;4.43;;;3.17;;
34585;SDS011;20816;50.950;11.108;2023-12-14T06:06:41;3.90;;;2.70;;
34585;SDS011;20816;50.950;11.108;2023-12-14T06:09:08;7.10;;;3.33;;
34585;SDS011;20816;50.950;11.108;2023-12-14T06:11:34;3.97;;;2.67;;
34585;SDS011;20816;50.950;11.108;2023-12-14T06:14:02;10.73;;;4.33;;
34585;SDS011;20816;50.950;11.108;2023-12-14T06:16:29;6.40;;;2.97;;
34585;SDS011;20816;50.950;11.108;2023-12-14T06:18:56;6.53;;;3.73;;
34585;SDS011;20816;50.950;11.108;2023-12-14T06:21:22;6.73;;;3.03;;
34585;SDS011;20816;50.950;11.108;2023-12-14T06:23:52;7.17;;;3.27;;
34585;SDS011;20816;50.950;11.108;2023-12-14T06:26:19;7.53;;;3.60;;
34585;SDS011;20816;50.950;11.108;2023-12-14T06:28:45;9.30;;;4.20;;
34585;SDS011;20816;50.950;11.108;2023-12-14T06:31:12;15.77;;;4.10;;
34585;SDS011;20816;50.950;11.108;2023-12-14T06:33:40;24.47;;;5.47;;
34585;SDS011;20816;50.950;11.108;2023-12-14T06:36:07;6.13;;;3.13;;
34585;SDS011;20816;50.950;11.108;2023-12-14T06:38:37;13.17;;;3.83;;
34585;SDS011;20816;50.950;11.108;2023-12-14T06:41:05;6.97;;;3.27;;
34585;SDS011;20816;50.950;11.108;2023-12-14T06:43:31;12.40;;;3.70;;
34585;SDS011;20816;50.950;11.108;2023-12-14T06:45:58;6.13;;;2.77;;
34585;SDS011;20816;50.950;11.108;2023-12-14T06:48:25;5.70;;;2.83;;
34585;SDS011;20816;50.950;11.108;2023-12-14T06:50:52;4.67;;;2.13;;
34585;SDS011;20816;50.950;11.108;2023-12-14T06:53:21;3.93;;;2.43;;
34585;SDS011;20816;50.950;11.108;2023-12-14T06:55:48;6.30;;;2.73;;
34585;SDS011;20816;50.950;11.108;2023-12-14T06:58:14;5.37;;;2.37;;
34585;SDS011;20816;50.950;11.108;2023-12-14T07:00:41;3.23;;;2.03;;
34585;SDS011;20816;50.950;11.108;2023-12-14T07:03:08;2.90;;;1.77;;
34585;SDS011;20816;50.950;11.108;2023-12-14T07:05:35;5.37;;;3.13;;
34585;SDS011;20816;50.950;11.108;2023-12-14T07:08:02;4.07;;;2.73;;
34585;SDS011;20816;50.950;11.108;2023-12-14T07:10:29;6.40;;;2.37;;
34585;SDS011;20816;50.950;11.108;2023-12-14T07:12:56;2.67;;;2.07;;
34585;SDS011;20816;50.950;11.108;2023-12-14T07:15:23;4.93;;;2.77;;
34585;SDS011;20816;50.950;11.108;2023-12-14T07:17:50;2.97;;;2.17;;
34585;SDS011;20816;50.950;11.108;2023-12-14T07:20:17;7.00;;;2.17;;
34585;SDS011;20816;50.950;11.108;2023-12-14T07:22:43;5.53;;;2.73;;
34585;SDS011;20816;50.950;11.108;2023-12-14T07:25:10;4.30;;;2.17;;
34585;SDS011;20816;50.950;11.108;2023-12-14T07:27:38;3.60;;;1.97;;
34585;SDS011;20816;50.950;11.108;2023-12-14T07:30:05;3.30;;;2.30;;
34585;SDS011;20816;50.950;11.108;2023-12-14T07:32:32;4.67;;;2.57;;
34585;SDS011;20816;50.950;11.108;2023-12-14T07:34:59;3.23;;;2.33;;
34585;SDS011;20816;50.950;11.108;2023-12-14T07:37:25;2.60;;;1.57;;
34585;SDS011;20816;50.950;11.108;2023-12-14T07:39:52;2.90;;;1.90;;
34585;SDS011;20816;50.950;11.108;2023-12-14T07:42:19;2.83;;;1.83;;
34585;SDS011;20816;50.950;11.108;2023-12-14T07:44:48;3.80;;;2.27;;
34585;SDS011;20816;50.950;11.108;2023-12-14T07:47:15;4.07;;;2.17;;
34585;SDS011;20816;50.950;11.108;2023-12-14T07:49:42;3.20;;;1.73;;
34585;SDS011;20816;50.950;11.108;2023-12-14T07:52:08;3.03;;;1.77;;
34585;SDS011;20816;50.950;11.108;2023-12-14T07:54:35;3.43;;;2.70;;
34585;SDS011;20816;50.950;11.108;2023-12-14T07:57:02;4.03;;;2.53;;
34585;SDS011;20816;50.950;11.108;2023-12-14T07:59:29;2.87;;;1.57;;
34585;SDS011;20816;50.950;11.108;2023-12-14T08:01:56;4.80;;;2.03;;
34585;SDS011;20816;50.950;11.108;2023-12-14T08:04:23;3.20;;;1.70;;
34585;SDS011;20816;50.950;11.108;2023-12-14T08:06:50;2.67;;;2.07;;
34585;SDS011;20816;50.950;11.108;2023-12-14T08:09:17;2.63;;;1.63;;
34585;SDS011;20816;50.950;11.108;2023-12-14T08:11:44;1.73;;;1.17;;
34585;SDS011;20816;50.950;11.108;2023-12-14T08:14:10;4.60;;;2.00;;
34585;SDS011;20816;50.950;11.108;2023-12-14T08:16:37;2.80;;;1.63;;
34585;SDS011;20816;50.950;11.108;2023-12-14T08:19:03;5.53;;;2.50;;
34585;SDS011;20816;50.950;11.108;2023-12-14T08:21:30;4.57;;;1.90;;
34585;SDS011;20816;50.950;11.108;2023-12-14T08:23:57;2.60;;;1.77;;
34585;SDS011;20816;50.950;11.108;2023-12-14T08:26:24;3.03;;;1.80;;
34585;SDS011;20816;50.950;11.108;2023-12-14T08:28:50;3.40;;;1.40;;
34585;SDS011;20816;50.950;11.108;2023-12-14T08:31:17;3.23;;;1.97;;
34585;SDS011;20816;50.950;11.108;2023-12-14T08:33:44;2.77;;;1.53;;
34585;SDS011;20816;50.950;11.108;2023-12-14T08:36:15;3.07;;;1.77;;
34585;SDS011;20816;50.950;11.108;2023-12-14T08:38:43;5.23;;;2.90;;
34585;SDS011;20816;50.950;11.108;2023-12-14T08:41:15;2.17;;;1.50;;
34585;SDS011;20816;50.950;11.108;2023-12-14T08:43:42;2.00;;;1.30;;
34585;SDS011;20816;50.950;11.108;2023-12-14T08:46:10;2.07;;;1.70;;
34585;SDS011;20816;50.950;11.108;2023-12-14T08:48:37;2.57;;;1.10;;
34585;SDS011;20816;50.950;11.108;2023-12-14T08:51:04;2.50;;;1.57;;
34585;SDS011;20816;50.950;11.108;2023-12-14T08:53:31;3.40;;;1.90;;
34585;SDS011;20816;50.950;11.108;2023-12-14T08:55:58;2.83;;;1.53;;
34585;SDS011;20816;50.950;11.108;2023-12-14T08:58:24;3.07;;;1.93;;
34585;SDS011;20816;50.950;11.108;2023-12-14T09:00:51;3.40;;;1.73;;
34585;SDS011;20816;50.950;11.108;2023-12-14T09:03:21;2.17;;;1.27;;
34585;SDS011;20816;50.950;11.108;2023-12-14T09:05:48;2.73;;;1.70;;
34585;SDS011;20816;50.950;11.108;2023-12-14T09:08:14;4.67;;;2.47;;
34585;SDS011;20816;50.950;11.108;2023-12-14T09:10:41;3.37;;;1.57;;
34585;SDS011;20816;50.950;11.108;2023-12-14T09:13:08;5.23;;;1.13;;
34585;SDS011;20816;50.950;11.108;2023-12-14T09:15:34;2.07;;;1.27;;
34585;SDS011;20816;50.950;11.108;2023-12-14T09:18:01;4.27;;;1.73;;
34585;SDS011;20816;50.950;11.108;2023-12-14T09:20:29;2.17;;;1.37;;
34585;SDS011;20816;50.950;11.108;2023-12-14T09:22:55;1.50;;;1.07;;
34585;SDS011;20816;50.950;11.108;2023-12-14T09:25:22;2.17;;;1.57;;
34585;SDS011;20816;50.950;11.108;2023-12-14T09:27:49;2.10;;;1.50;;
34585;SDS011;20816;50.950;11.108;2023-12-14T09:30:16;2.43;;;1.77;;
34585;SDS011;20816;50.950;11.108;2023-12-14T09:32:44;1.70;;;1.53;;
34585;SDS011;20816;50.950;11.108;2023-12-14T09:35:10;4.30;;;1.63;;
34585;SDS011;20816;50.950;11.108;2023-12-14T09:37:38;2.43;;;1.23;;
34585;SDS011;20816;50.950;11.108;2023-12-14T09:40:05;3.63;;;1.93;;
34585;SDS011;20816;50.950;11.108;2023-12-14T09:42:38;1.47;;;0.67;;
34585;SDS011;20816;50.950;11.108;2023-12-14T09:45:06;3.90;;;1.20;;
34585;SDS011;20816;50.950;11.108;2023-12-14T09:47:37;4.20;;;1.40;;
34585;SDS011;20816;50.950;11.108;2023-12-14T09:50:05;6.47;;;0.97;;
34585;SDS011;20816;50.950;11.108;2023-12-14T09:52:32;1.77;;;1.00;;
34585;SDS011;20816;50.950;11.108;2023-12-14T09:55:00;1.20;;;1.10;;
34585;SDS011;20816;50.950;11.108;2023-12-14T09:57:27;2.03;;;1.03;;
34585;SDS011;20816;50.950;11.108;2023-12-14T09:59:54;1.63;;;0.97;;
34585;SDS011;20816;50.950;11.108;2023-12-14T10:02:25;1.13;;;0.67;;
34585;SDS011;20816;50.950;11.108;2023-12-14T10:04:53;0.97;;;0.67;;
34585;SDS011;20816;50.950;11.108;2023-12-14T10:07:21;0.67;;;0.63;;
34585;SDS011;20816;50.950;11.108;2023-12-14T10:09:48;1.40;;;0.63;;
34585;SDS011;20816;50.950;11.108;2023-12-14T10:12:16;1.40;;;0.97;;
34585;SDS011;20816;50.950;11.108;2023-12-14T10:14:43;1.83;;;1.07;;
34585;SDS011;20816;50.950;11.108;2023-12-14T10:17:17;8.63;;;1.43;;
34585;SDS011;20816;50.950;11.108;2023-12-14T10:19:46;1.13;;;0.77;;
34585;SDS011;20816;50.950;11.108;2023-12-14T10:22:14;1.43;;;1.03;;
34585;SDS011;20816;50.950;11.108;2023-12-14T10:24:45;4.53;;;0.93;;
34585;SDS011;20816;50.950;11.108;2023-12-14T10:27:14;2.13;;;1.10;;
34585;SDS011;20816;50.950;11.108;2023-12-14T10:29:42;1.10;;;0.83;;
34585;SDS011;20816;50.950;11.108;2023-12-14T10:32:11;1.00;;;0.90;;
34585;SDS011;20816;50.950;11.108;2023-12-14T10:34:38;1.63;;;0.80;;
34585;SDS011;20816;50.950;11.108;2023-12-14T10:37:08;5.43;;;0.80;;
34585;SDS011;20816;50.950;11.108;2023-12-14T10:39:36;2.33;;;1.40;;
34585;SDS011;20816;50.950;11.108;2023-12-14T10:42:08;1.50;;;0.60;;
34585;SDS011;20816;50.950;11.108;2023-12-14T10:44:45;1.13;;;0.80;;
34585;SDS011;20816;50.950;11.108;2023-12-14T10:47:34;1.23;;;1.00;;
34585;SDS011;20816;50.950;11.108;2023-12-14T10:50:02;2.47;;;1.33;;
34585;SDS011;20816;50.950;11.108;2023-12-14T10:52:30;1.63;;;1.53;;
34585;SDS011;20816;50.950;11.108;2023-12-14T10:55:00;1.57;;;1.10;;
34585;SDS011;20816;50.950;11.108;2023-12-14T10:57:34;1.37;;;1.17;;
34585;SDS011;20816;50.950;11.108;2023-12-14T11:00:04;1.30;;;1.07;;
34585;SDS011;20816;50.950;11.108;2023-12-14T11:02:39;1.43;;;0.67;;
34585;SDS011;20816;50.950;11.108;2023-12-14T11:05:10;1.67;;;1.00;;
34585;SDS011;20816;50.950;11.108;2023-12-14T11:10:41;1.87;;;0.67;;
34585;SDS011;20816;50.950;11.108;2023-12-14T11:13:13;2.40;;;1.43;;
34585;SDS011;20816;50.950;11.108;2023-12-14T11:15:45;2.23;;;1.50;;
34585;SDS011;20816;50.950;11.108;2023-12-14T11:18:23;2.13;;;1.47;;
34585;SDS011;20816;50.950;11.108;2023-12-14T11:21:02;3.30;;;2.57;;
34585;SDS011;20816;50.950;11.108;2023-12-14T11:23:30;2.87;;;2.23;;
34585;SDS011;20816;50.950;11.108;2023-12-14T11:25:58;3.37;;;2.13;;
34585;SDS011;20816;50.950;11.108;2023-12-14T11:28:27;3.33;;;1.90;;
34585;SDS011;20816;50.950;11.108;2023-12-14T11:30:55;2.30;;;1.83;;
34585;SDS011;20816;50.950;11.108;2023-12-14T11:33:23;2.50;;;1.93;;
34585;SDS011;20816;50.950;11.108;2023-12-14T11:35:51;3.10;;;1.90;;
34585;SDS011;20816;50.950;11.108;2023-12-14T11:38:21;7.40;;;2.10;;
34585;SDS011;20816;50.950;11.108;2023-12-14T11:40:50;1.80;;;1.37;;
34585;SDS011;20816;50.950;11.108;2023-12-14T11:43:17;3.10;;;2.10;;
34585;SDS011;20816;50.950;11.108;2023-12-14T11:45:47;3.73;;;1.33;;
34585;SDS011;20816;50.950;11.108;2023-12-14T11:48:14;1.73;;;1.60;;
34585;SDS011;20816;50.950;11.108;2023-12-14T11:50:42;2.17;;;1.60;;
34585;SDS011;20816;50.950;11.108;2023-12-14T11:53:10;2.00;;;1.70;;
34585;SDS011;20816;50.950;11.108;2023-12-14T11:55:38;2.63;;;2.17;;
34585;SDS011;20816;50.950;11.108;2023-12-14T11:58:07;2.67;;;1.77;;
34585;SDS011;20816;50.950;11.108;2023-12-14T12:00:35;2.77;;;2.07;;
34585;SDS011;20816;50.950;11.108;2023-12-14T12:03:08;1.97;;;1.73;;
34585;SDS011;20816;50.950;11.108;2023-12-14T12:05:54;1.83;;;1.70;;
34585;SDS011;20816;50.950;11.108;2023-12-14T12:08:21;2.03;;;1.53;;
34585;SDS011;20816;50.950;11.108;2023-12-14T12:10:48;4.70;;;2.17;;
34585;SDS011;20816;50.950;11.108;2023-12-14T12:13:16;2.10;;;1.90;;
34585;SDS011;20816;50.950;11.108;2023-12-14T12:15:45;2.87;;;1.70;;
34585;SDS011;20816;50.950;11.108;2023-12-14T12:18:13;3.77;;;2.23;;
34585;SDS011;20816;50.950;11.108;2023-12-14T12:20:41;3.23;;;1.77;;
34585;SDS011;20816;50.950;11.108;2023-12-14T12:23:08;4.37;;;1.60;;
34585;SDS011;20816;50.950;11.108;2023-12-14T12:25:35;2.87;;;1.57;;
34585;SDS011;20816;50.950;11.108;2023-12-14T12:28:02;3.67;;;2.37;;
34585;SDS011;20816;50.950;11.108;2023-12-14T12:30:30;2.73;;;1.80;;
34585;SDS011;20816;50.950;11.108;2023-12-14T12:32:59;4.33;;;2.60;;
34585;SDS011;20816;50.950;11.108;2023-12-14T12:35:26;4.93;;;2.53;;
34585;SDS011;20816;50.950;11.108;2023-12-14T12:37:56;3.37;;;2.03;;
34585;SDS011;20816;50.950;11.108;2023-12-14T12:40:23;4.20;;;2.40;;
34585;SDS011;20816;50.950;11.108;2023-12-14T12:42:52;3.57;;;1.57;;
34585;SDS011;20816;50.950;11.108;2023-12-14T12:45:19;6.33;;;2.97;;
34585;SDS011;20816;50.950;11.108;2023-12-14T12:47:52;2.80;;;1.90;;
34585;SDS011;20816;50.950;11.108;2023-12-14T12:50:19;2.90;;;1.90;;
34585;SDS011;20816;50.950;11.108;2023-12-14T12:52:47;2.50;;;1.97;;
34585;SDS011;20816;50.950;11.108;2023-12-14T12:55:15;3.90;;;2.70;;
34585;SDS011;20816;50.950;11.108;2023-12-14T12:57:43;2.10;;;1.47;;
34585;SDS011;20816;50.950;11.108;2023-12-14T13:00:09;2.63;;;1.73;;
34585;SDS011;20816;50.950;11.108;2023-12-14T13:02:40;2.70;;;2.10;;
34585;SDS011;20816;50.950;11.108;2023-12-14T13:05:07;4.30;;;2.40;;
34585;SDS011;20816;50.950;11.108;2023-12-14T13:07:38;5.20;;;2.60;;
34585;SDS011;20816;50.950;11.108;2023-12-14T13:10:06;2.90;;;1.73;;
34585;SDS011;20816;50.950;11.108;2023-12-14T13:12:53;4.80;;;2.17;;
34585;SDS011;20816;50.950;11.108;2023-12-14T13:15:21;2.57;;;1.23;;
34585;SDS011;20816;50.950;11.108;2023-12-14T13:17:52;2.00;;;1.23;;
34585;SDS011;20816;50.950;11.108;2023-12-14T13:20:19;2.97;;;1.40;;
34585;SDS011;20816;50.950;11.108;2023-12-14T13:22:46;2.27;;;1.07;;
34585;SDS011;20816;50.950;11.108;2023-12-14T13:25:13;4.20;;;1.53;;
34585;SDS011;20816;50.950;11.108;2023-12-14T13:27:41;2.83;;;1.57;;
34585;SDS011;20816;50.950;11.108;2023-12-14T13:30:10;2.13;;;1.20;;
34585;SDS011;20816;50.950;11.108;2023-12-14T13:32:37;2.23;;;0.80;;
34585;SDS011;20816;50.950;11.108;2023-12-14T13:35:04;3.33;;;1.50;;
34585;SDS011;20816;50.950;11.108;2023-12-14T13:37:32;3.17;;;1.43;;
34585;SDS011;20816;50.950;11.108;2023-12-14T13:40:00;1.80;;;1.13;;
34585;SDS011;20816;50.950;11.108;2023-12-14T13:42:27;2.23;;;1.43;;
34585;SDS011;20816;50.950;11.108;2023-12-14T13:44:54;2.93;;;1.30;;
34585;SDS011;20816;50.950;11.108;2023-12-14T13:47:21;3.03;;;1.03;;
34585;SDS011;20816;50.950;11.108;2023-12-14T13:49:49;1.63;;;1.20;;
34585;SDS011;20816;50.950;11.108;2023-12-14T13:52:16;2.47;;;1.10;;
34585;SDS011;20816;50.950;11.108;2023-12-14T13:54:42;2.40;;;1.50;;
34585;SDS011;20816;50.950;11.108;2023-12-14T13:57:09;4.17;;;1.93;;
34585;SDS011;20816;50.950;11.108;2023-12-14T13:59:36;1.27;;;0.90;;
34585;SDS011;20816;50.950;11.108;2023-12-14T14:02:03;1.93;;;1.20;;
34585;SDS011;20816;50.950;11.108;2023-12-14T14:04:30;2.77;;;1.00;;
34585;SDS011;20816;50.950;11.108;2023-12-14T14:06:56;1.73;;;1.20;;
34585;SDS011;20816;50.950;11.108;2023-12-14T14:09:23;2.03;;;1.20;;
34585;SDS011;20816;50.950;11.108;2023-12-14T14:11:50;2.53;;;1.17;;
34585;SDS011;20816;50.950;11.108;2023-12-14T14:14:17;1.80;;;1.33;;
34585;SDS011;20816;50.950;11.108;2023-12-14T14:16:44;1.77;;;1.17;;
34585;SDS011;20816;50.950;11.108;2023-12-14T14:19:11;3.33;;;1.47;;
34585;SDS011;20816;50.950;11.108;2023-12-14T14:21:38;1.67;;;1.00;;
34585;SDS011;20816;50.950;11.108;2023-12-14T14:24:05;2.43;;;1.57;;
34585;SDS011;20816;50.950;11.108;2023-12-14T14:26:32;3.47;;;2.00;;
34585;SDS011;20816;50.950;11.108;2023-12-14T14:28:59;3.47;;;2.20;;
34585;SDS011;20816;50.950;11.108;2023-12-14T14:31:29;1.90;;;1.53;;
34585;SDS011;20816;50.950;11.108;2023-12-14T14:33:59;2.03;;;1.20;;
34585;SDS011;20816;50.950;11.108;2023-12-14T14:36:27;2.53;;;1.47;;
34585;SDS011;20816;50.950;11.108;2023-12-14T14:38:54;4.97;;;2.63;;